createdAt,value
2017-09-23T00:00:32.554Z,12.70
2017-09-23T00:03:01.404Z,12.70
2017-09-23T00:05:29.500Z,12.60
2017-09-23T00:07:57.583Z,12.60
2017-09-23T00:10:26.450Z,12.60
2017-09-23T00:12:54.568Z,12.70
2017-09-23T00:15:22.642Z,12.70
2017-09-23T00:17:52.239Z,12.70
2017-09-23T00:20:20.334Z,12.80
2017-09-23T00:22:48.850Z,12.80
2017-09-23T00:25:16.962Z,12.90
2017-09-23T00:27:45.042Z,12.90
2017-09-23T00:30:13.154Z,12.90
2017-09-23T00:32:41.630Z,13.00
2017-09-23T00:35:10.522Z,13.00
2017-09-23T00:37:39.382Z,13.10
2017-09-23T00:40:07.472Z,13.20
2017-09-23T00:42:35.578Z,13.10
2017-09-23T00:45:04.082Z,13.20
2017-09-23T00:47:32.167Z,13.20
2017-09-23T00:50:00.287Z,13.20
2017-09-23T00:52:29.139Z,13.30
2017-09-23T00:54:57.222Z,13.30
2017-09-23T00:57:25.345Z,13.40
2017-09-23T00:59:53.474Z,13.40
2017-09-23T01:02:21.562Z,13.40
2017-09-23T01:04:50.423Z,13.50
2017-09-23T01:07:20.039Z,13.60
2017-09-23T01:09:48.523Z,13.80
2017-09-23T01:12:16.646Z,13.90
2017-09-23T01:14:44.740Z,14.00
2017-09-23T01:17:13.219Z,14.10
2017-09-23T01:19:41.733Z,14.10
2017-09-23T01:22:09.831Z,14.10
2017-09-23T01:24:38.691Z,14.20
2017-09-23T01:27:06.798Z,14.20
2017-09-23T01:29:34.939Z,14.20
2017-09-23T01:32:03.419Z,14.10
2017-09-23T01:34:31.516Z,14.10
2017-09-23T01:37:00.031Z,14.10
2017-09-23T01:39:29.255Z,14.00
2017-09-23T01:41:57.347Z,14.00
2017-09-23T01:44:25.455Z,13.90
2017-09-23T01:46:53.552Z,13.50
2017-09-23T01:49:21.664Z,13.30
2017-09-23T01:51:49.751Z,13.10
2017-09-23T01:54:17.871Z,13.00
2017-09-23T01:56:46.747Z,12.90
2017-09-23T01:59:14.831Z,12.90
2017-09-23T02:01:42.948Z,12.80
2017-09-23T02:04:11.803Z,12.80
2017-09-23T02:06:39.896Z,12.80
2017-09-23T02:09:08.015Z,12.70
2017-09-23T02:14:05.459Z,12.60
2017-09-23T02:16:33.619Z,12.50
2017-09-23T02:19:01.673Z,12.50
2017-09-23T02:21:29.778Z,12.60
2017-09-23T02:23:57.871Z,12.60
2017-09-23T02:28:56.475Z,12.60
2017-09-23T02:31:25.335Z,12.40
2017-09-23T02:33:53.447Z,12.40
2017-09-23T02:36:21.535Z,12.40
2017-09-23T02:38:49.658Z,12.60
2017-09-23T02:41:19.275Z,12.60
2017-09-23T02:43:47.365Z,12.60
2017-09-23T02:46:16.590Z,12.40
2017-09-23T02:51:14.844Z,12.60
2017-09-23T02:53:43.705Z,12.60
2017-09-23T02:56:11.814Z,12.50
2017-09-23T03:01:10.076Z,12.50
2017-09-23T03:03:38.163Z,12.50
2017-09-23T03:06:06.256Z,12.40
2017-09-23T03:08:35.130Z,12.40
2017-09-23T03:11:03.247Z,12.40
2017-09-23T03:13:32.506Z,12.30
2017-09-23T03:16:00.596Z,12.30
2017-09-23T03:18:29.103Z,12.30
2017-09-23T03:20:57.212Z,12.40
2017-09-23T03:23:25.333Z,12.40
2017-09-23T03:25:53.415Z,12.50
2017-09-23T03:28:21.504Z,12.50
2017-09-23T03:30:50.013Z,12.40
2017-09-23T03:33:18.130Z,12.50
2017-09-23T03:35:46.610Z,12.50
2017-09-23T03:38:15.463Z,12.50
2017-09-23T03:40:43.580Z,12.50
2017-09-23T03:43:11.668Z,12.40
2017-09-23T03:45:39.783Z,12.40
2017-09-23T03:48:07.892Z,12.40
2017-09-23T03:50:35.979Z,12.40
2017-09-23T03:53:05.263Z,12.40
2017-09-23T03:55:33.359Z,12.30
2017-09-23T03:58:01.448Z,12.30
2017-09-23T04:00:29.964Z,12.30
2017-09-23T04:02:58.081Z,12.40
2017-09-23T04:05:26.542Z,12.40
2017-09-23T04:07:54.671Z,12.40
2017-09-23T04:10:22.763Z,12.40
2017-09-23T04:15:20.227Z,12.40
2017-09-23T04:17:48.319Z,12.40
2017-09-23T04:20:17.167Z,12.50
2017-09-23T04:22:45.283Z,12.50
2017-09-23T04:25:14.158Z,12.50
2017-09-23T04:27:42.260Z,12.50
2017-09-23T04:32:39.725Z,12.40
2017-09-23T04:35:08.594Z,12.40
2017-09-23T04:37:36.698Z,12.40
2017-09-23T04:40:05.187Z,12.50
2017-09-23T04:42:33.301Z,12.60
2017-09-23T04:45:01.427Z,12.50
2017-09-23T04:49:59.646Z,12.60
2017-09-23T04:52:27.755Z,12.50
2017-09-23T04:54:56.907Z,12.40
2017-09-23T04:57:25.015Z,12.50
2017-09-23T04:59:53.112Z,12.60
2017-09-23T05:02:21.995Z,12.50
2017-09-23T05:04:50.092Z,12.40
2017-09-23T05:07:18.947Z,12.30
2017-09-23T05:09:47.464Z,12.30
2017-09-23T05:14:44.931Z,12.40
2017-09-23T05:17:13.457Z,12.30
2017-09-23T05:19:41.544Z,12.20
2017-09-23T05:22:09.637Z,12.20
2017-09-23T05:24:38.152Z,12.20
2017-09-23T05:27:07.007Z,12.20
2017-09-23T05:29:35.135Z,12.20
2017-09-23T05:32:03.992Z,12.20
2017-09-23T05:34:32.905Z,12.20
2017-09-23T05:37:02.484Z,12.30
2017-09-23T05:39:31.465Z,12.30
2017-09-23T05:41:59.547Z,12.30
2017-09-23T05:44:27.659Z,12.30
2017-09-23T05:46:56.522Z,12.40
2017-09-23T05:49:25.403Z,12.50
2017-09-23T05:51:53.508Z,12.50
2017-09-23T05:54:21.599Z,12.50
2017-09-23T05:56:49.783Z,12.60
2017-09-23T05:59:18.598Z,12.60
2017-09-23T06:01:46.706Z,12.60
2017-09-23T06:04:15.570Z,12.80
2017-09-23T06:06:43.663Z,12.80
2017-09-23T06:09:12.535Z,12.80
2017-09-23T06:11:40.627Z,12.80
2017-09-23T06:16:38.095Z,13.00
2017-09-23T06:19:06.980Z,13.00
2017-09-23T06:21:35.072Z,13.00
2017-09-23T06:24:03.620Z,13.10
2017-09-23T06:26:31.723Z,13.30
2017-09-23T06:29:00.575Z,13.30
2017-09-23T06:31:28.693Z,13.40
2017-09-23T06:33:56.791Z,13.50
2017-09-23T06:36:24.903Z,13.40
2017-09-23T06:38:53.011Z,13.50
2017-09-23T06:41:21.504Z,13.60
2017-09-23T06:43:50.407Z,13.70
2017-09-23T06:46:18.495Z,13.70
2017-09-23T06:48:46.599Z,13.70
2017-09-23T06:51:14.726Z,13.80
2017-09-23T06:53:42.823Z,13.90
2017-09-23T06:56:11.719Z,14.00
2017-09-23T06:58:40.224Z,14.10
2017-09-23T07:01:08.312Z,14.30
2017-09-23T07:03:36.827Z,14.50
2017-09-23T07:06:04.926Z,14.60
2017-09-23T07:08:33.011Z,14.70
2017-09-23T07:11:01.531Z,14.70
2017-09-23T07:13:30.411Z,14.60
2017-09-23T07:18:27.851Z,14.80
2017-09-23T07:20:57.480Z,15.00
2017-09-23T07:23:26.718Z,15.10
2017-09-23T07:25:54.807Z,15.20
2017-09-23T07:28:22.916Z,15.30
2017-09-23T07:30:51.412Z,15.50
2017-09-23T07:33:20.287Z,15.60
2017-09-23T07:35:48.375Z,15.70
2017-09-23T07:38:17.267Z,15.80
2017-09-23T07:40:46.495Z,15.80
2017-09-23T07:43:14.586Z,16.00
2017-09-23T07:45:42.700Z,16.10
2017-09-23T07:48:11.559Z,16.40
2017-09-23T07:50:39.682Z,16.60
2017-09-23T07:53:07.780Z,16.80
2017-09-23T07:55:35.867Z,17.10
2017-09-23T07:58:03.996Z,17.30
2017-09-23T08:00:32.851Z,17.50
2017-09-23T08:03:02.467Z,17.80
2017-09-23T08:05:30.587Z,18.10
2017-09-23T08:07:58.711Z,18.30
2017-09-23T08:10:26.808Z,18.40
2017-09-23T08:12:55.300Z,18.20
2017-09-23T08:15:24.200Z,18.30
2017-09-23T08:17:52.290Z,18.30
2017-09-23T08:20:20.379Z,18.50
2017-09-23T08:22:48.887Z,18.60
2017-09-23T08:25:16.995Z,18.70
2017-09-23T08:27:45.088Z,18.80
2017-09-23T08:30:13.208Z,19.00
2017-09-23T08:32:41.299Z,19.30
2017-09-23T08:37:38.755Z,19.80
2017-09-23T08:40:06.852Z,19.80
2017-09-23T08:42:35.727Z,19.70
2017-09-23T08:45:04.584Z,19.60
2017-09-23T08:47:32.710Z,19.50
2017-09-23T08:50:01.623Z,19.50
2017-09-23T08:52:29.710Z,19.50
2017-09-23T08:54:57.828Z,19.90
2017-09-23T08:57:26.700Z,20.00
2017-09-23T08:59:54.848Z,19.80
2017-09-23T09:02:22.943Z,20.10
2017-09-23T09:04:51.427Z,20.30
2017-09-23T09:07:19.539Z,20.80
2017-09-23T09:09:47.754Z,21.10
2017-09-23T09:12:16.576Z,21.60
2017-09-23T09:14:44.668Z,22.00
2017-09-23T09:17:13.546Z,22.20
2017-09-23T09:19:41.631Z,22.20
2017-09-23T09:22:10.508Z,22.20
2017-09-23T09:24:38.619Z,22.10
2017-09-23T09:27:06.733Z,22.20
2017-09-23T09:29:34.823Z,22.50
2017-09-23T09:32:02.911Z,22.90
2017-09-23T09:34:31.414Z,23.20
2017-09-23T09:36:59.531Z,22.90
2017-09-23T09:39:27.632Z,23.10
2017-09-23T09:41:56.488Z,23.00
2017-09-23T09:44:24.599Z,23.20
2017-09-23T09:49:22.088Z,23.50
2017-09-23T09:51:51.686Z,23.20
2017-09-23T09:54:20.183Z,23.60
2017-09-23T09:56:48.304Z,23.70
2017-09-23T09:59:16.400Z,24.00
2017-09-23T10:01:44.907Z,24.10
2017-09-23T10:04:13.012Z,24.10
2017-09-23T10:06:41.524Z,23.80
2017-09-23T10:09:09.644Z,23.90
2017-09-23T10:11:39.243Z,24.40
2017-09-23T10:14:07.335Z,24.70
2017-09-23T10:16:35.455Z,24.80
2017-09-23T10:19:03.547Z,24.70
2017-09-23T10:21:32.446Z,24.70
2017-09-23T10:24:00.535Z,24.90
2017-09-23T10:26:28.627Z,24.80
2017-09-23T10:28:56.724Z,24.80
2017-09-23T10:31:24.835Z,25.00
2017-09-23T10:33:53.714Z,25.00
2017-09-23T10:36:22.576Z,25.00
2017-09-23T10:38:52.196Z,24.80
2017-09-23T10:41:20.296Z,24.00
2017-09-23T10:43:48.420Z,23.20
2017-09-23T10:46:16.515Z,23.30
2017-09-23T10:48:44.615Z,23.90
2017-09-23T10:51:12.734Z,24.90
2017-09-23T10:53:41.596Z,25.20
2017-09-23T10:56:10.568Z,24.70
2017-09-23T10:58:39.444Z,24.10
2017-09-23T11:01:08.299Z,23.20
2017-09-23T11:03:36.411Z,22.70
2017-09-23T11:06:05.296Z,22.10
2017-09-23T11:08:34.152Z,21.80
2017-09-23T11:11:02.267Z,21.70
2017-09-23T11:13:31.504Z,21.30
2017-09-23T11:15:59.615Z,20.70
2017-09-23T11:18:27.711Z,20.20
2017-09-23T11:20:56.586Z,20.10
2017-09-23T11:23:24.683Z,20.10
2017-09-23T11:25:53.567Z,20.00
2017-09-23T11:28:22.422Z,19.90
2017-09-23T11:30:50.515Z,19.90
2017-09-23T11:33:18.633Z,20.00
2017-09-23T11:35:46.784Z,19.90
2017-09-23T11:38:16.388Z,19.70
2017-09-23T11:40:45.255Z,19.70
2017-09-23T11:43:13.367Z,19.70
2017-09-23T11:45:41.463Z,19.40
2017-09-23T11:48:09.575Z,19.50
2017-09-23T11:50:37.672Z,19.40
2017-09-23T11:53:06.563Z,19.50
2017-09-23T11:55:35.424Z,19.50
2017-09-23T11:58:03.512Z,19.50
2017-09-23T12:00:32.391Z,19.50
2017-09-23T12:03:00.488Z,19.60
2017-09-23T12:05:30.107Z,19.60
2017-09-23T12:10:27.590Z,19.60
2017-09-23T12:12:56.456Z,19.70
2017-09-23T12:15:25.335Z,19.90
2017-09-23T12:17:54.578Z,20.00
2017-09-23T12:20:22.671Z,20.10
2017-09-23T12:25:20.140Z,20.10
2017-09-23T12:27:48.230Z,20.20
2017-09-23T12:30:16.348Z,20.40
2017-09-23T12:35:14.275Z,20.40
2017-09-23T12:37:42.372Z,20.50
2017-09-23T12:40:10.483Z,20.50
2017-09-23T12:42:38.578Z,20.60
2017-09-23T12:45:06.686Z,20.60
2017-09-23T12:47:34.799Z,20.80
2017-09-23T12:50:02.891Z,20.90
2017-09-23T12:52:31.747Z,20.90
2017-09-23T12:55:01.382Z,21.40
2017-09-23T12:57:29.473Z,22.40
2017-09-23T12:59:57.575Z,22.70
2017-09-23T13:02:26.460Z,22.50
2017-09-23T13:04:54.555Z,22.20
2017-09-23T13:07:22.644Z,22.10
2017-09-23T13:09:51.519Z,22.00
2017-09-23T13:14:48.988Z,21.90
2017-09-23T13:17:17.079Z,22.00
2017-09-23T13:19:46.684Z,22.20
2017-09-23T13:22:15.198Z,23.50
2017-09-23T13:24:44.051Z,25.60
2017-09-23T13:27:13.672Z,26.60
2017-09-23T13:29:42.542Z,25.70
2017-09-23T13:32:11.427Z,24.90
2017-09-23T13:34:39.549Z,25.50
2017-09-23T13:37:08.411Z,26.40
2017-09-23T13:39:36.895Z,26.80
2017-09-23T13:42:05.773Z,26.00
2017-09-23T13:44:34.628Z,26.60
2017-09-23T13:47:02.730Z,27.60
2017-09-23T13:49:31.611Z,27.90
2017-09-23T13:51:59.716Z,28.80
2017-09-23T13:54:27.830Z,29.10
2017-09-23T13:56:56.687Z,28.80
2017-09-23T13:59:24.768Z,28.80
2017-09-23T14:01:53.652Z,29.20
2017-09-23T14:06:51.533Z,28.00
2017-09-23T14:09:19.620Z,28.50
2017-09-23T14:11:47.740Z,28.70
2017-09-23T14:14:17.236Z,28.70
2017-09-23T14:16:46.843Z,28.80
2017-09-23T14:19:15.008Z,29.20
2017-09-23T14:21:43.096Z,29.60
2017-09-23T14:24:11.598Z,30.10
2017-09-23T14:26:40.479Z,30.00
2017-09-23T14:29:08.563Z,30.00
2017-09-23T14:31:37.470Z,29.70
2017-09-23T14:34:06.321Z,29.80
2017-09-23T14:36:34.423Z,30.10
2017-09-23T14:39:03.275Z,30.20
2017-09-23T14:41:31.380Z,30.30
2017-09-23T14:44:00.231Z,29.70
2017-09-23T14:46:28.327Z,28.50
2017-09-23T14:48:56.432Z,27.20
2017-09-23T14:51:24.520Z,26.00
2017-09-23T14:53:53.765Z,25.70
2017-09-23T14:56:21.849Z,24.90
2017-09-23T15:01:19.304Z,23.40
2017-09-23T15:03:47.392Z,22.70
2017-09-23T15:06:15.496Z,22.30
2017-09-23T15:08:43.600Z,22.00
2017-09-23T15:11:12.116Z,21.90
2017-09-23T15:13:40.178Z,21.70
2017-09-23T15:16:08.320Z,21.40
2017-09-23T15:18:36.427Z,21.30
2017-09-23T15:21:04.544Z,21.30
2017-09-23T15:23:33.011Z,21.10
2017-09-23T15:26:01.517Z,20.90
2017-09-23T15:28:29.616Z,20.80
2017-09-23T15:30:57.724Z,20.70
2017-09-23T15:33:26.578Z,20.60
2017-09-23T15:35:54.693Z,20.60
2017-09-23T15:38:23.547Z,20.40
2017-09-23T15:40:51.626Z,20.30
2017-09-23T15:43:20.193Z,20.10
2017-09-23T15:45:48.270Z,20.10
2017-09-23T15:48:16.438Z,20.10
2017-09-23T15:50:45.288Z,20.00
2017-09-23T15:53:14.132Z,20.10
2017-09-23T15:55:42.220Z,20.10
2017-09-23T15:58:11.490Z,20.10
2017-09-23T16:00:39.550Z,20.00
2017-09-23T16:03:08.041Z,19.90
2017-09-23T16:05:36.128Z,19.90
2017-09-23T16:08:04.250Z,19.90
2017-09-23T16:10:33.095Z,19.80
2017-09-23T16:13:01.577Z,19.80
2017-09-23T16:15:29.686Z,19.80
2017-09-23T16:17:58.536Z,19.90
2017-09-23T16:20:26.623Z,20.20
2017-09-23T16:25:24.854Z,20.30
2017-09-23T16:27:52.971Z,20.10
2017-09-23T16:30:21.832Z,20.10
2017-09-23T16:32:49.924Z,19.90
2017-09-23T16:35:18.032Z,19.60
2017-09-23T16:37:46.524Z,19.40
2017-09-23T16:42:43.995Z,19.20
2017-09-23T16:45:12.112Z,18.90
2017-09-23T16:47:40.206Z,18.90
2017-09-23T16:50:08.295Z,18.80
2017-09-23T16:52:36.803Z,18.80
2017-09-23T16:55:05.745Z,18.60
2017-09-23T16:57:33.863Z,18.50
2017-09-23T17:00:02.427Z,18.40
2017-09-23T17:02:30.483Z,18.40
2017-09-23T17:04:58.577Z,18.30
2017-09-23T17:07:26.687Z,18.10
2017-09-23T17:09:55.163Z,18.10
2017-09-23T17:12:23.279Z,18.00
2017-09-23T17:14:51.359Z,17.90
2017-09-23T17:17:19.435Z,17.80
2017-09-23T17:19:48.337Z,17.70
2017-09-23T17:22:16.427Z,17.70
2017-09-23T17:24:44.508Z,17.60
2017-09-23T17:27:13.376Z,17.50
2017-09-23T17:29:41.461Z,17.40
2017-09-23T17:32:09.959Z,17.30
2017-09-23T17:37:07.438Z,17.10
2017-09-23T17:39:35.532Z,17.10
2017-09-23T17:42:03.630Z,17.00
2017-09-23T17:44:31.731Z,16.90
2017-09-23T17:47:00.587Z,16.80
2017-09-23T17:54:27.807Z,16.80
2017-09-23T17:56:57.423Z,16.70
2017-09-23T17:59:27.043Z,16.70
2017-09-23T18:01:55.532Z,16.70
2017-09-23T18:04:23.644Z,16.70
2017-09-23T18:06:51.735Z,16.60
2017-09-23T18:09:19.852Z,16.50
2017-09-23T18:11:48.340Z,16.40
2017-09-23T18:14:16.459Z,16.40
2017-09-23T18:16:44.551Z,16.30
2017-09-23T18:19:13.407Z,16.30
2017-09-23T18:21:41.566Z,16.20
2017-09-23T18:24:09.685Z,16.10
2017-09-23T18:26:37.798Z,16.00
2017-09-23T18:29:05.887Z,16.10
2017-09-23T18:31:33.979Z,16.10
2017-09-23T18:34:02.093Z,16.10
2017-09-23T18:36:31.687Z,16.00
2017-09-23T18:39:00.572Z,16.10
2017-09-23T18:41:28.663Z,16.00
2017-09-23T18:43:57.539Z,16.10
2017-09-23T18:46:26.767Z,16.00
2017-09-23T18:48:55.283Z,15.90
2017-09-23T18:51:24.155Z,15.80
2017-09-23T18:53:52.631Z,15.70
2017-09-23T18:56:21.511Z,15.70
2017-09-23T18:58:49.642Z,15.70
2017-09-23T19:01:18.550Z,15.70
2017-09-23T19:03:47.423Z,15.60
2017-09-23T19:06:15.539Z,15.50
2017-09-23T19:08:43.631Z,15.60
2017-09-23T19:11:11.739Z,15.50
2017-09-23T19:13:39.835Z,15.40
2017-09-23T19:16:08.731Z,15.30
2017-09-23T19:18:37.587Z,15.30
2017-09-23T19:21:07.206Z,15.30
2017-09-23T19:23:35.300Z,15.40
2017-09-23T19:26:04.180Z,15.40
2017-09-23T19:28:34.184Z,15.40
2017-09-23T19:31:02.284Z,15.30
2017-09-23T19:33:31.915Z,15.40
2017-09-23T19:36:00.011Z,15.40
2017-09-23T19:38:28.131Z,15.40
2017-09-23T19:40:57.642Z,15.30
2017-09-23T19:43:26.516Z,15.30
2017-09-23T19:45:54.648Z,15.30
2017-09-23T19:48:23.511Z,15.30
2017-09-23T19:50:51.633Z,15.30
2017-09-23T19:53:19.748Z,15.30
2017-09-23T19:55:48.640Z,15.20
2017-09-23T20:00:46.544Z,15.10
2017-09-23T20:03:14.664Z,15.10
2017-09-23T20:05:42.793Z,15.00
2017-09-23T20:10:46.483Z,15.00
2017-09-23T20:13:15.347Z,15.00
2017-09-23T20:15:43.440Z,14.90
2017-09-23T20:18:11.955Z,14.90
2017-09-23T20:20:40.050Z,14.90
2017-09-23T20:23:08.164Z,14.90
2017-09-23T20:25:37.039Z,14.80
2017-09-23T20:28:06.721Z,14.70
2017-09-23T20:30:34.798Z,14.70
2017-09-23T20:33:03.284Z,14.60
2017-09-23T20:35:31.392Z,14.50
2017-09-23T20:38:00.340Z,14.50
2017-09-23T20:40:28.411Z,14.50
2017-09-23T20:42:56.510Z,14.50
2017-09-23T20:45:25.027Z,14.50
2017-09-23T20:47:53.123Z,14.50
2017-09-23T20:52:51.740Z,14.60
2017-09-23T20:55:19.892Z,14.60
2017-09-23T20:57:47.987Z,14.50
2017-09-23T21:00:16.471Z,14.60
2017-09-23T21:02:44.592Z,14.70
2017-09-23T21:05:13.827Z,14.60
2017-09-23T21:07:41.939Z,14.60
2017-09-23T21:10:10.064Z,14.50
2017-09-23T21:12:38.550Z,14.60
2017-09-23T21:15:06.668Z,14.60
2017-09-23T21:17:34.755Z,14.50
2017-09-23T21:20:03.647Z,14.40
2017-09-23T21:22:31.736Z,14.40
2017-09-23T21:24:59.847Z,14.40
2017-09-23T21:27:27.947Z,14.50
2017-09-23T21:29:57.542Z,14.40
2017-09-23T21:32:26.434Z,14.40
2017-09-23T21:34:54.928Z,14.40
2017-09-23T21:37:23.018Z,14.50
2017-09-23T21:42:20.549Z,14.40
2017-09-23T21:47:17.971Z,14.40
2017-09-23T21:49:46.479Z,14.40
2017-09-23T21:52:14.572Z,14.40
2017-09-23T21:54:42.705Z,14.40
2017-09-23T21:57:11.556Z,14.30
2017-09-23T21:59:39.660Z,14.40
2017-09-23T22:02:08.164Z,14.40
2017-09-23T22:04:36.655Z,14.30
2017-09-23T22:07:05.567Z,14.30
2017-09-23T22:09:33.635Z,14.40
2017-09-23T22:12:01.751Z,14.40
2017-09-23T22:14:29.848Z,14.30
2017-09-23T22:16:57.943Z,14.30
2017-09-23T22:19:27.583Z,14.30
2017-09-23T22:21:56.435Z,14.30
2017-09-23T22:24:25.314Z,14.20
2017-09-23T22:26:53.416Z,14.20
2017-09-23T22:29:21.528Z,14.20
2017-09-23T22:31:49.640Z,14.10
2017-09-23T22:34:18.505Z,14.20
2017-09-23T22:36:47.374Z,14.10
2017-09-23T22:39:15.507Z,14.10
2017-09-23T22:41:43.631Z,14.10
2017-09-23T22:44:11.691Z,14.10
2017-09-23T22:46:39.820Z,14.10
2017-09-23T22:49:07.912Z,14.10
2017-09-23T22:51:35.999Z,14.10
2017-09-23T22:54:05.619Z,14.10
2017-09-23T22:56:33.707Z,14.00
2017-09-23T22:59:02.589Z,14.00
2017-09-23T23:01:31.451Z,14.10
2017-09-23T23:04:00.331Z,14.00
2017-09-23T23:06:28.438Z,14.00
2017-09-23T23:08:56.545Z,14.00
2017-09-23T23:11:25.406Z,14.00
2017-09-23T23:13:53.894Z,14.00
2017-09-23T23:16:22.771Z,14.10
2017-09-23T23:21:21.752Z,14.10
2017-09-23T23:23:49.879Z,14.00
2017-09-23T23:26:18.743Z,13.90
2017-09-23T23:28:46.907Z,13.90
2017-09-23T23:31:15.011Z,13.90
2017-09-23T23:33:43.880Z,13.90
2017-09-23T23:38:41.343Z,13.80
2017-09-23T23:41:09.455Z,13.80
2017-09-23T23:43:38.349Z,13.80
2017-09-23T23:46:07.204Z,13.80
2017-09-23T23:48:35.326Z,13.80
2017-09-23T23:51:03.425Z,13.70
2017-09-23T23:53:31.521Z,13.70
2017-09-23T23:58:29.000Z,13.70
